sensor_id;sensor_type;location;lat;lon;timestamp;P1;durP1;ratioP1;P2;durP2;ratioP2
16262;SDS011;8239;48.594;8.598;2022-09-09T00:00:24;3.60;;;3.13;;
16262;SDS011;8239;48.594;8.598;2022-09-09T00:02:58;5.97;;;3.40;;
16262;SDS011;8239;48.594;8.598;2022-09-09T00:05:34;5.67;;;3.00;;
16262;SDS011;8239;48.594;8.598;2022-09-09T00:08:06;5.33;;;3.00;;
16262;SDS011;8239;48.594;8.598;2022-09-09T00:10:47;6.30;;;2.73;;
16262;SDS011;8239;48.594;8.598;2022-09-09T00:13:21;7.67;;;3.20;;
16262;SDS011;8239;48.594;8.598;2022-09-09T00:15:55;4.77;;;2.93;;
16262;SDS011;8239;48.594;8.598;2022-09-09T00:18:27;5.87;;;3.17;;
16262;SDS011;8239;48.594;8.598;2022-09-09T00:21:02;3.17;;;2.87;;
16262;SDS011;8239;48.594;8.598;2022-09-09T00:23:34;3.40;;;2.50;;
16262;SDS011;8239;48.594;8.598;2022-09-09T00:26:05;4.53;;;2.40;;
16262;SDS011;8239;48.594;8.598;2022-09-09T00:28:39;2.80;;;2.60;;
16262;SDS011;8239;48.594;8.598;2022-09-09T00:31:11;3.90;;;2.23;;
16262;SDS011;8239;48.594;8.598;2022-09-09T00:33:40;4.90;;;2.80;;
16262;SDS011;8239;48.594;8.598;2022-09-09T00:36:12;3.50;;;2.60;;
16262;SDS011;8239;48.594;8.598;2022-09-09T00:38:42;3.43;;;2.70;;
16262;SDS011;8239;48.594;8.598;2022-09-09T00:41:14;5.07;;;2.50;;
16262;SDS011;8239;48.594;8.598;2022-09-09T00:43:51;3.33;;;2.30;;
16262;SDS011;8239;48.594;8.598;2022-09-09T00:46:40;3.40;;;2.27;;
16262;SDS011;8239;48.594;8.598;2022-09-09T00:49:20;5.50;;;2.50;;
16262;SDS011;8239;48.594;8.598;2022-09-09T00:52:02;3.73;;;2.40;;
16262;SDS011;8239;48.594;8.598;2022-09-09T00:54:40;2.43;;;2.17;;
16262;SDS011;8239;48.594;8.598;2022-09-09T00:57:17;2.80;;;2.20;;
16262;SDS011;8239;48.594;8.598;2022-09-09T00:59:55;3.63;;;2.53;;
16262;SDS011;8239;48.594;8.598;2022-09-09T01:02:29;3.00;;;2.33;;
16262;SDS011;8239;48.594;8.598;2022-09-09T01:05:04;3.63;;;2.80;;
16262;SDS011;8239;48.594;8.598;2022-09-09T01:07:38;4.00;;;2.90;;
16262;SDS011;8239;48.594;8.598;2022-09-09T01:10:13;4.77;;;3.27;;
16262;SDS011;8239;48.594;8.598;2022-09-09T01:12:47;4.70;;;3.37;;
16262;SDS011;8239;48.594;8.598;2022-09-09T01:15:19;4.17;;;3.40;;
16262;SDS011;8239;48.594;8.598;2022-09-09T01:17:52;5.40;;;2.87;;
16262;SDS011;8239;48.594;8.598;2022-09-09T01:20:24;5.73;;;2.80;;
16262;SDS011;8239;48.594;8.598;2022-09-09T01:23:03;7.53;;;3.23;;
16262;SDS011;8239;48.594;8.598;2022-09-09T01:26:04;3.43;;;3.03;;
16262;SDS011;8239;48.594;8.598;2022-09-09T01:28:42;6.47;;;3.10;;
16262;SDS011;8239;48.594;8.598;2022-09-09T01:31:13;3.87;;;2.93;;
16262;SDS011;8239;48.594;8.598;2022-09-09T01:33:44;3.80;;;2.50;;
16262;SDS011;8239;48.594;8.598;2022-09-09T01:36:12;3.60;;;2.50;;
16262;SDS011;8239;48.594;8.598;2022-09-09T01:38:41;7.00;;;2.63;;
16262;SDS011;8239;48.594;8.598;2022-09-09T01:41:09;4.10;;;2.53;;
16262;SDS011;8239;48.594;8.598;2022-09-09T01:43:36;5.30;;;2.60;;
16262;SDS011;8239;48.594;8.598;2022-09-09T01:46:04;5.67;;;3.00;;
16262;SDS011;8239;48.594;8.598;2022-09-09T01:48:31;6.20;;;3.47;;
16262;SDS011;8239;48.594;8.598;2022-09-09T01:50:58;5.80;;;3.00;;
16262;SDS011;8239;48.594;8.598;2022-09-09T01:53:25;5.10;;;2.97;;
16262;SDS011;8239;48.594;8.598;2022-09-09T01:55:54;4.80;;;3.10;;
16262;SDS011;8239;48.594;8.598;2022-09-09T01:58:34;5.57;;;3.27;;
16262;SDS011;8239;48.594;8.598;2022-09-09T02:01:12;4.53;;;3.17;;
16262;SDS011;8239;48.594;8.598;2022-09-09T02:03:51;4.07;;;2.97;;
16262;SDS011;8239;48.594;8.598;2022-09-09T02:06:23;5.23;;;3.00;;
16262;SDS011;8239;48.594;8.598;2022-09-09T02:08:55;7.30;;;3.20;;
16262;SDS011;8239;48.594;8.598;2022-09-09T02:11:24;4.20;;;2.70;;
16262;SDS011;8239;48.594;8.598;2022-09-09T02:13:56;3.63;;;2.60;;
16262;SDS011;8239;48.594;8.598;2022-09-09T02:16:27;3.77;;;2.90;;
16262;SDS011;8239;48.594;8.598;2022-09-09T02:19:00;5.87;;;3.17;;
16262;SDS011;8239;48.594;8.598;2022-09-09T02:21:32;4.50;;;3.27;;
16262;SDS011;8239;48.594;8.598;2022-09-09T02:24:00;6.37;;;3.17;;
16262;SDS011;8239;48.594;8.598;2022-09-09T02:26:33;6.10;;;3.33;;
16262;SDS011;8239;48.594;8.598;2022-09-09T02:29:03;5.90;;;3.47;;
16262;SDS011;8239;48.594;8.598;2022-09-09T02:31:33;4.93;;;3.17;;
16262;SDS011;8239;48.594;8.598;2022-09-09T02:34:01;6.83;;;3.13;;
16262;SDS011;8239;48.594;8.598;2022-09-09T02:36:32;6.17;;;2.67;;
16262;SDS011;8239;48.594;8.598;2022-09-09T02:39:00;4.57;;;3.10;;
16262;SDS011;8239;48.594;8.598;2022-09-09T02:41:28;4.83;;;3.33;;
16262;SDS011;8239;48.594;8.598;2022-09-09T02:43:58;98.10;;;5.83;;
16262;SDS011;8239;48.594;8.598;2022-09-09T02:46:40;43.53;;;5.20;;
16262;SDS011;8239;48.594;8.598;2022-09-09T02:49:18;5.37;;;2.70;;
16262;SDS011;8239;48.594;8.598;2022-09-09T02:51:51;5.13;;;2.60;;
16262;SDS011;8239;48.594;8.598;2022-09-09T02:54:27;4.53;;;2.90;;
16262;SDS011;8239;48.594;8.598;2022-09-09T02:56:56;5.70;;;2.90;;
16262;SDS011;8239;48.594;8.598;2022-09-09T02:59:30;3.23;;;2.53;;
16262;SDS011;8239;48.594;8.598;2022-09-09T03:01:58;3.93;;;2.93;;
16262;SDS011;8239;48.594;8.598;2022-09-09T03:04:26;4.60;;;3.83;;
16262;SDS011;8239;48.594;8.598;2022-09-09T03:06:53;4.87;;;3.77;;
16262;SDS011;8239;48.594;8.598;2022-09-09T03:09:20;7.33;;;3.27;;
16262;SDS011;8239;48.594;8.598;2022-09-09T03:11:47;5.47;;;3.40;;
16262;SDS011;8239;48.594;8.598;2022-09-09T03:14:14;7.30;;;3.70;;
16262;SDS011;8239;48.594;8.598;2022-09-09T03:16:41;4.70;;;3.57;;
16262;SDS011;8239;48.594;8.598;2022-09-09T03:19:10;5.47;;;3.77;;
16262;SDS011;8239;48.594;8.598;2022-09-09T03:21:37;5.40;;;3.80;;
16262;SDS011;8239;48.594;8.598;2022-09-09T03:24:04;6.47;;;3.67;;
16262;SDS011;8239;48.594;8.598;2022-09-09T03:26:31;5.27;;;3.30;;
16262;SDS011;8239;48.594;8.598;2022-09-09T03:28:58;5.57;;;3.00;;
16262;SDS011;8239;48.594;8.598;2022-09-09T03:31:26;6.47;;;3.10;;
16262;SDS011;8239;48.594;8.598;2022-09-09T03:33:55;4.30;;;2.93;;
16262;SDS011;8239;48.594;8.598;2022-09-09T03:36:24;3.87;;;3.07;;
16262;SDS011;8239;48.594;8.598;2022-09-09T03:38:53;9.33;;;3.20;;
16262;SDS011;8239;48.594;8.598;2022-09-09T03:41:20;4.97;;;3.27;;
16262;SDS011;8239;48.594;8.598;2022-09-09T03:43:48;4.50;;;3.10;;
16262;SDS011;8239;48.594;8.598;2022-09-09T03:46:16;4.90;;;3.17;;
16262;SDS011;8239;48.594;8.598;2022-09-09T03:48:43;4.83;;;3.47;;
16262;SDS011;8239;48.594;8.598;2022-09-09T03:51:10;4.70;;;3.27;;
16262;SDS011;8239;48.594;8.598;2022-09-09T03:53:38;4.63;;;3.10;;
16262;SDS011;8239;48.594;8.598;2022-09-09T03:56:06;4.33;;;2.90;;
16262;SDS011;8239;48.594;8.598;2022-09-09T03:58:34;4.13;;;2.70;;
16262;SDS011;8239;48.594;8.598;2022-09-09T04:01:02;3.50;;;2.77;;
16262;SDS011;8239;48.594;8.598;2022-09-09T04:03:31;3.07;;;2.73;;
16262;SDS011;8239;48.594;8.598;2022-09-09T04:05:58;2.80;;;2.47;;
16262;SDS011;8239;48.594;8.598;2022-09-09T04:08:27;4.03;;;2.50;;
16262;SDS011;8239;48.594;8.598;2022-09-09T04:10:57;5.97;;;2.50;;
16262;SDS011;8239;48.594;8.598;2022-09-09T04:13:27;2.97;;;2.30;;
16262;SDS011;8239;48.594;8.598;2022-09-09T04:15:55;2.23;;;2.10;;
16262;SDS011;8239;48.594;8.598;2022-09-09T04:18:23;3.30;;;2.30;;
16262;SDS011;8239;48.594;8.598;2022-09-09T04:20:51;2.40;;;2.10;;
16262;SDS011;8239;48.594;8.598;2022-09-09T04:23:19;3.90;;;2.10;;
16262;SDS011;8239;48.594;8.598;2022-09-09T04:25:49;3.90;;;2.40;;
16262;SDS011;8239;48.594;8.598;2022-09-09T04:28:19;5.07;;;2.43;;
16262;SDS011;8239;48.594;8.598;2022-09-09T04:30:48;4.63;;;2.60;;
16262;SDS011;8239;48.594;8.598;2022-09-09T04:33:15;5.23;;;2.47;;
16262;SDS011;8239;48.594;8.598;2022-09-09T04:35:43;2.47;;;2.07;;
16262;SDS011;8239;48.594;8.598;2022-09-09T04:38:12;2.70;;;2.50;;
16262;SDS011;8239;48.594;8.598;2022-09-09T04:40:38;3.40;;;2.40;;
16262;SDS011;8239;48.594;8.598;2022-09-09T04:43:08;2.63;;;2.10;;
16262;SDS011;8239;48.594;8.598;2022-09-09T04:45:36;3.37;;;2.20;;
16262;SDS011;8239;48.594;8.598;2022-09-09T04:48:05;3.47;;;1.97;;
16262;SDS011;8239;48.594;8.598;2022-09-09T04:50:32;3.77;;;2.17;;
16262;SDS011;8239;48.594;8.598;2022-09-09T04:53:00;2.70;;;1.73;;
16262;SDS011;8239;48.594;8.598;2022-09-09T04:55:27;3.40;;;2.00;;
16262;SDS011;8239;48.594;8.598;2022-09-09T04:57:55;3.13;;;2.23;;
16262;SDS011;8239;48.594;8.598;2022-09-09T05:00:23;4.37;;;2.00;;
16262;SDS011;8239;48.594;8.598;2022-09-09T05:02:51;2.20;;;1.97;;
16262;SDS011;8239;48.594;8.598;2022-09-09T05:05:18;2.17;;;1.90;;
16262;SDS011;8239;48.594;8.598;2022-09-09T05:07:45;2.10;;;1.90;;
16262;SDS011;8239;48.594;8.598;2022-09-09T05:10:13;3.33;;;2.00;;
16262;SDS011;8239;48.594;8.598;2022-09-09T05:12:41;2.93;;;1.87;;
16262;SDS011;8239;48.594;8.598;2022-09-09T05:15:09;3.43;;;1.93;;
16262;SDS011;8239;48.594;8.598;2022-09-09T05:17:36;2.50;;;1.60;;
16262;SDS011;8239;48.594;8.598;2022-09-09T05:20:05;3.43;;;1.80;;
16262;SDS011;8239;48.594;8.598;2022-09-09T05:22:33;3.40;;;1.70;;
16262;SDS011;8239;48.594;8.598;2022-09-09T05:24:59;2.17;;;1.70;;
16262;SDS011;8239;48.594;8.598;2022-09-09T05:27:26;3.23;;;1.77;;
16262;SDS011;8239;48.594;8.598;2022-09-09T05:29:56;2.80;;;1.80;;
16262;SDS011;8239;48.594;8.598;2022-09-09T05:32:23;2.83;;;1.80;;
16262;SDS011;8239;48.594;8.598;2022-09-09T05:34:51;1.73;;;1.63;;
16262;SDS011;8239;48.594;8.598;2022-09-09T05:37:19;4.40;;;1.93;;
16262;SDS011;8239;48.594;8.598;2022-09-09T05:39:46;2.17;;;1.70;;
16262;SDS011;8239;48.594;8.598;2022-09-09T05:42:13;2.00;;;1.80;;
16262;SDS011;8239;48.594;8.598;2022-09-09T05:44:40;1.50;;;1.40;;
16262;SDS011;8239;48.594;8.598;2022-09-09T05:47:07;1.97;;;1.63;;
16262;SDS011;8239;48.594;8.598;2022-09-09T05:49:34;3.53;;;1.70;;
16262;SDS011;8239;48.594;8.598;2022-09-09T05:52:01;2.60;;;1.50;;
16262;SDS011;8239;48.594;8.598;2022-09-09T05:54:30;3.30;;;1.50;;
16262;SDS011;8239;48.594;8.598;2022-09-09T05:56:57;1.57;;;1.47;;
16262;SDS011;8239;48.594;8.598;2022-09-09T05:59:24;1.80;;;1.70;;
16262;SDS011;8239;48.594;8.598;2022-09-09T06:01:51;4.37;;;2.00;;
16262;SDS011;8239;48.594;8.598;2022-09-09T06:04:19;2.17;;;1.80;;
16262;SDS011;8239;48.594;8.598;2022-09-09T06:06:47;2.77;;;1.57;;
16262;SDS011;8239;48.594;8.598;2022-09-09T06:09:14;1.50;;;1.40;;
16262;SDS011;8239;48.594;8.598;2022-09-09T06:11:42;1.70;;;1.60;;
16262;SDS011;8239;48.594;8.598;2022-09-09T06:14:10;2.33;;;1.50;;
16262;SDS011;8239;48.594;8.598;2022-09-09T06:16:38;2.40;;;1.40;;
16262;SDS011;8239;48.594;8.598;2022-09-09T06:19:09;1.63;;;1.53;;
16262;SDS011;8239;48.594;8.598;2022-09-09T06:21:37;1.80;;;1.40;;
16262;SDS011;8239;48.594;8.598;2022-09-09T06:24:05;1.30;;;1.20;;
16262;SDS011;8239;48.594;8.598;2022-09-09T06:26:33;0.97;;;0.93;;
16262;SDS011;8239;48.594;8.598;2022-09-09T06:29:03;1.23;;;1.13;;
16262;SDS011;8239;48.594;8.598;2022-09-09T06:31:31;1.30;;;1.03;;
16262;SDS011;8239;48.594;8.598;2022-09-09T06:34:03;1.47;;;0.90;;
16262;SDS011;8239;48.594;8.598;2022-09-09T06:36:31;1.43;;;1.33;;
16262;SDS011;8239;48.594;8.598;2022-09-09T06:39:00;1.10;;;1.10;;
16262;SDS011;8239;48.594;8.598;2022-09-09T06:41:28;2.17;;;0.97;;
16262;SDS011;8239;48.594;8.598;2022-09-09T06:43:58;1.58;;;1.05;;
16262;SDS011;8239;48.594;8.598;2022-09-09T06:46:27;0.95;;;0.95;;
16262;SDS011;8239;48.594;8.598;2022-09-09T06:48:57;1.63;;;1.10;;
16262;SDS011;8239;48.594;8.598;2022-09-09T06:51:25;1.38;;;1.00;;
16262;SDS011;8239;48.594;8.598;2022-09-09T06:53:55;1.70;;;1.60;;
16262;SDS011;8239;48.594;8.598;2022-09-09T06:56:24;1.02;;;1.00;;
16262;SDS011;8239;48.594;8.598;2022-09-09T06:58:53;1.92;;;0.90;;
16262;SDS011;8239;48.594;8.598;2022-09-09T07:01:21;0.85;;;0.85;;
16262;SDS011;8239;48.594;8.598;2022-09-09T07:03:51;2.33;;;1.15;;
16262;SDS011;8239;48.594;8.598;2022-09-09T07:06:20;1.83;;;1.15;;
16262;SDS011;8239;48.594;8.598;2022-09-09T07:08:50;1.35;;;1.05;;
16262;SDS011;8239;48.594;8.598;2022-09-09T07:11:18;1.95;;;1.10;;
16262;SDS011;8239;48.594;8.598;2022-09-09T07:13:47;2.40;;;1.00;;
16262;SDS011;8239;48.594;8.598;2022-09-09T07:16:16;1.98;;;1.02;;
16262;SDS011;8239;48.594;8.598;2022-09-09T07:18:48;2.17;;;1.10;;
16262;SDS011;8239;48.594;8.598;2022-09-09T07:21:17;1.42;;;1.00;;
16262;SDS011;8239;48.594;8.598;2022-09-09T07:23:46;1.60;;;1.10;;
16262;SDS011;8239;48.594;8.598;2022-09-09T07:26:13;1.17;;;0.90;;
16262;SDS011;8239;48.594;8.598;2022-09-09T07:28:41;4.28;;;1.10;;
16262;SDS011;8239;48.594;8.598;2022-09-09T07:31:12;2.13;;;1.00;;
16262;SDS011;8239;48.594;8.598;2022-09-09T07:33:41;2.83;;;1.00;;
16262;SDS011;8239;48.594;8.598;2022-09-09T07:36:12;2.50;;;0.90;;
16262;SDS011;8239;48.594;8.598;2022-09-09T07:38:41;1.67;;;0.98;;
16262;SDS011;8239;48.594;8.598;2022-09-09T07:41:11;1.77;;;1.02;;
16262;SDS011;8239;48.594;8.598;2022-09-09T07:43:39;1.13;;;1.02;;
16262;SDS011;8239;48.594;8.598;2022-09-09T07:46:07;1.60;;;1.08;;
16262;SDS011;8239;48.594;8.598;2022-09-09T07:48:35;4.15;;;1.23;;
16262;SDS011;8239;48.594;8.598;2022-09-09T07:51:03;1.60;;;1.00;;
16262;SDS011;8239;48.594;8.598;2022-09-09T07:53:37;1.73;;;1.00;;
16262;SDS011;8239;48.594;8.598;2022-09-09T07:56:05;1.10;;;0.93;;
16262;SDS011;8239;48.594;8.598;2022-09-09T07:58:34;2.50;;;1.17;;
16262;SDS011;8239;48.594;8.598;2022-09-09T08:01:06;1.73;;;1.05;;
16262;SDS011;8239;48.594;8.598;2022-09-09T08:03:34;1.05;;;0.90;;
16262;SDS011;8239;48.594;8.598;2022-09-09T08:06:02;2.25;;;1.08;;
16262;SDS011;8239;48.594;8.598;2022-09-09T08:08:29;1.90;;;1.00;;
16262;SDS011;8239;48.594;8.598;2022-09-09T08:11:06;2.72;;;1.00;;
16262;SDS011;8239;48.594;8.598;2022-09-09T08:13:34;1.60;;;1.00;;
16262;SDS011;8239;48.594;8.598;2022-09-09T08:16:06;1.38;;;1.00;;
16262;SDS011;8239;48.594;8.598;2022-09-09T08:18:34;1.27;;;0.77;;
16262;SDS011;8239;48.594;8.598;2022-09-09T08:21:06;2.08;;;0.90;;
16262;SDS011;8239;48.594;8.598;2022-09-09T08:23:37;1.63;;;0.95;;
16262;SDS011;8239;48.594;8.598;2022-09-09T08:26:06;1.60;;;1.00;;
16262;SDS011;8239;48.594;8.598;2022-09-09T08:28:35;3.78;;;1.30;;
16262;SDS011;8239;48.594;8.598;2022-09-09T08:31:06;2.30;;;0.95;;
16262;SDS011;8239;48.594;8.598;2022-09-09T08:33:34;2.50;;;0.98;;
16262;SDS011;8239;48.594;8.598;2022-09-09T08:36:03;1.95;;;1.10;;
16262;SDS011;8239;48.594;8.598;2022-09-09T08:38:31;1.98;;;1.05;;
16262;SDS011;8239;48.594;8.598;2022-09-09T08:41:01;1.83;;;0.95;;
16262;SDS011;8239;48.594;8.598;2022-09-09T08:43:37;1.83;;;0.80;;
16262;SDS011;8239;48.594;8.598;2022-09-09T08:46:05;1.90;;;1.00;;
16262;SDS011;8239;48.594;8.598;2022-09-09T08:48:44;2.28;;;0.90;;
16262;SDS011;8239;48.594;8.598;2022-09-09T08:51:18;1.27;;;1.00;;
16262;SDS011;8239;48.594;8.598;2022-09-09T08:53:47;1.23;;;0.90;;
16262;SDS011;8239;48.594;8.598;2022-09-09T08:56:18;2.47;;;1.05;;
16262;SDS011;8239;48.594;8.598;2022-09-09T08:58:49;2.55;;;1.00;;
16262;SDS011;8239;48.594;8.598;2022-09-09T09:01:24;4.28;;;1.00;;
16262;SDS011;8239;48.594;8.598;2022-09-09T09:04:06;1.92;;;0.90;;
16262;SDS011;8239;48.594;8.598;2022-09-09T09:06:45;1.42;;;0.93;;
16262;SDS011;8239;48.594;8.598;2022-09-09T09:09:21;1.55;;;0.90;;
16262;SDS011;8239;48.594;8.598;2022-09-09T09:11:58;1.60;;;0.90;;
16262;SDS011;8239;48.594;8.598;2022-09-09T09:14:28;1.10;;;0.77;;
16262;SDS011;8239;48.594;8.598;2022-09-09T09:16:59;1.15;;;0.90;;
16262;SDS011;8239;48.594;8.598;2022-09-09T09:19:29;1.42;;;0.90;;
16262;SDS011;8239;48.594;8.598;2022-09-09T09:21:59;2.15;;;1.00;;
16262;SDS011;8239;48.594;8.598;2022-09-09T09:24:34;2.20;;;0.90;;
16262;SDS011;8239;48.594;8.598;2022-09-09T09:27:13;1.83;;;0.88;;
16262;SDS011;8239;48.594;8.598;2022-09-09T09:29:45;1.38;;;1.00;;
16262;SDS011;8239;48.594;8.598;2022-09-09T09:32:15;1.10;;;0.82;;
16262;SDS011;8239;48.594;8.598;2022-09-09T09:34:48;1.45;;;0.90;;
16262;SDS011;8239;48.594;8.598;2022-09-09T09:37:16;3.80;;;1.30;;
16262;SDS011;8239;48.594;8.598;2022-09-09T09:39:49;1.77;;;0.98;;
16262;SDS011;8239;48.594;8.598;2022-09-09T09:42:17;1.48;;;0.93;;
16262;SDS011;8239;48.594;8.598;2022-09-09T09:44:46;1.42;;;0.88;;
16262;SDS011;8239;48.594;8.598;2022-09-09T09:47:13;1.55;;;0.98;;
16262;SDS011;8239;48.594;8.598;2022-09-09T09:49:50;1.77;;;0.80;;
16262;SDS011;8239;48.594;8.598;2022-09-09T09:52:21;2.05;;;0.95;;
16262;SDS011;8239;48.594;8.598;2022-09-09T09:54:50;1.40;;;0.80;;
16262;SDS011;8239;48.594;8.598;2022-09-09T09:57:22;2.20;;;0.65;;
16262;SDS011;8239;48.594;8.598;2022-09-09T10:00:00;1.92;;;0.80;;
16262;SDS011;8239;48.594;8.598;2022-09-09T10:02:36;2.03;;;0.98;;
16262;SDS011;8239;48.594;8.598;2022-09-09T10:05:08;1.55;;;0.70;;
16262;SDS011;8239;48.594;8.598;2022-09-09T10:07:40;1.48;;;0.80;;
16262;SDS011;8239;48.594;8.598;2022-09-09T10:10:12;1.55;;;0.70;;
16262;SDS011;8239;48.594;8.598;2022-09-09T10:12:46;1.38;;;0.70;;
16262;SDS011;8239;48.594;8.598;2022-09-09T10:15:26;3.10;;;0.75;;
16262;SDS011;8239;48.594;8.598;2022-09-09T10:18:01;1.02;;;0.73;;
16262;SDS011;8239;48.594;8.598;2022-09-09T10:20:36;1.48;;;0.90;;
16262;SDS011;8239;48.594;8.598;2022-09-09T10:23:13;1.75;;;0.80;;
16262;SDS011;8239;48.594;8.598;2022-09-09T10:25:57;2.20;;;0.80;;
16262;SDS011;8239;48.594;8.598;2022-09-09T10:29:02;2.40;;;0.70;;
16262;SDS011;8239;48.594;8.598;2022-09-09T10:31:44;1.05;;;0.50;;
16262;SDS011;8239;48.594;8.598;2022-09-09T10:34:20;1.27;;;0.70;;
16262;SDS011;8239;48.594;8.598;2022-09-09T10:36:58;2.25;;;0.90;;
16262;SDS011;8239;48.594;8.598;2022-09-09T10:39:31;1.30;;;0.70;;
16262;SDS011;8239;48.594;8.598;2022-09-09T10:42:03;1.80;;;0.70;;
16262;SDS011;8239;48.594;8.598;2022-09-09T10:44:38;2.33;;;0.70;;
16262;SDS011;8239;48.594;8.598;2022-09-09T10:47:22;2.00;;;0.80;;
16262;SDS011;8239;48.594;8.598;2022-09-09T10:50:10;1.70;;;0.67;;
16262;SDS011;8239;48.594;8.598;2022-09-09T10:52:49;3.60;;;0.60;;
16262;SDS011;8239;48.594;8.598;2022-09-09T10:55:27;0.63;;;0.63;;
16262;SDS011;8239;48.594;8.598;2022-09-09T10:58:02;2.20;;;0.70;;
16262;SDS011;8239;48.594;8.598;2022-09-09T11:00:36;1.50;;;0.60;;
16262;SDS011;8239;48.594;8.598;2022-09-09T11:03:06;1.67;;;0.50;;
16262;SDS011;8239;48.594;8.598;2022-09-09T11:05:42;1.00;;;0.90;;
16262;SDS011;8239;48.594;8.598;2022-09-09T11:08:13;1.50;;;0.60;;
16262;SDS011;8239;48.594;8.598;2022-09-09T11:10:45;0.95;;;0.60;;
16262;SDS011;8239;48.594;8.598;2022-09-09T11:13:26;1.65;;;0.57;;
16262;SDS011;8239;48.594;8.598;2022-09-09T11:16:03;0.55;;;0.35;;
16262;SDS011;8239;48.594;8.598;2022-09-09T11:18:38;2.17;;;0.52;;
16262;SDS011;8239;48.594;8.598;2022-09-09T11:21:09;1.25;;;0.40;;
16262;SDS011;8239;48.594;8.598;2022-09-09T11:23:44;1.25;;;0.60;;
16262;SDS011;8239;48.594;8.598;2022-09-09T11:26:16;1.02;;;0.40;;
16262;SDS011;8239;48.594;8.598;2022-09-09T11:28:51;1.20;;;0.57;;
16262;SDS011;8239;48.594;8.598;2022-09-09T11:31:34;0.93;;;0.50;;
16262;SDS011;8239;48.594;8.598;2022-09-09T11:34:14;1.23;;;0.50;;
16262;SDS011;8239;48.594;8.598;2022-09-09T11:36:54;1.15;;;0.38;;
16262;SDS011;8239;48.594;8.598;2022-09-09T11:39:38;1.13;;;0.40;;
16262;SDS011;8239;48.594;8.598;2022-09-09T11:42:17;1.08;;;0.32;;
16262;SDS011;8239;48.594;8.598;2022-09-09T11:44:46;1.48;;;0.55;;
16262;SDS011;8239;48.594;8.598;2022-09-09T11:47:20;0.63;;;0.50;;
16262;SDS011;8239;48.594;8.598;2022-09-09T11:49:54;0.40;;;0.40;;
16262;SDS011;8239;48.594;8.598;2022-09-09T11:52:22;0.35;;;0.35;;
16262;SDS011;8239;48.594;8.598;2022-09-09T11:54:52;1.33;;;0.70;;
16262;SDS011;8239;48.594;8.598;2022-09-09T11:57:25;0.50;;;0.50;;
16262;SDS011;8239;48.594;8.598;2022-09-09T11:59:57;0.93;;;0.55;;
16262;SDS011;8239;48.594;8.598;2022-09-09T12:02:27;0.85;;;0.47;;
16262;SDS011;8239;48.594;8.598;2022-09-09T12:04:57;1.45;;;0.60;;
16262;SDS011;8239;48.594;8.598;2022-09-09T12:07:32;0.85;;;0.60;;
16262;SDS011;8239;48.594;8.598;2022-09-09T12:10:03;1.17;;;0.70;;
16262;SDS011;8239;48.594;8.598;2022-09-09T12:12:45;0.95;;;0.43;;
16262;SDS011;8239;48.594;8.598;2022-09-09T12:15:23;1.00;;;0.60;;
16262;SDS011;8239;48.594;8.598;2022-09-09T12:17:56;1.00;;;0.68;;
16262;SDS011;8239;48.594;8.598;2022-09-09T12:20:26;0.95;;;0.47;;
16262;SDS011;8239;48.594;8.598;2022-09-09T12:23:06;1.08;;;0.63;;
16262;SDS011;8239;48.594;8.598;2022-09-09T12:25:47;1.83;;;0.60;;
16262;SDS011;8239;48.594;8.598;2022-09-09T12:28:39;1.50;;;0.70;;
16262;SDS011;8239;48.594;8.598;2022-09-09T12:31:17;1.65;;;0.68;;
16262;SDS011;8239;48.594;8.598;2022-09-09T12:33:50;2.55;;;0.80;;
16262;SDS011;8239;48.594;8.598;2022-09-09T12:36:18;1.63;;;0.65;;
16262;SDS011;8239;48.594;8.598;2022-09-09T12:38:48;0.70;;;0.50;;
16262;SDS011;8239;48.594;8.598;2022-09-09T12:41:20;1.55;;;0.73;;
16262;SDS011;8239;48.594;8.598;2022-09-09T12:43:48;0.80;;;0.50;;
16262;SDS011;8239;48.594;8.598;2022-09-09T12:46:20;1.42;;;0.60;;
16262;SDS011;8239;48.594;8.598;2022-09-09T12:48:58;0.82;;;0.45;;
16262;SDS011;8239;48.594;8.598;2022-09-09T12:51:26;1.15;;;0.50;;
16262;SDS011;8239;48.594;8.598;2022-09-09T12:53:55;0.82;;;0.50;;
16262;SDS011;8239;48.594;8.598;2022-09-09T12:56:23;1.60;;;0.60;;
16262;SDS011;8239;48.594;8.598;2022-09-09T12:58:53;1.85;;;0.50;;
16262;SDS011;8239;48.594;8.598;2022-09-09T13:01:22;1.05;;;0.63;;
16262;SDS011;8239;48.594;8.598;2022-09-09T13:03:51;0.30;;;0.30;;
16262;SDS011;8239;48.594;8.598;2022-09-09T13:06:21;1.13;;;0.70;;
16262;SDS011;8239;48.594;8.598;2022-09-09T13:08:50;1.45;;;0.57;;
16262;SDS011;8239;48.594;8.598;2022-09-09T13:11:17;2.92;;;0.90;;
16262;SDS011;8239;48.594;8.598;2022-09-09T13:13:50;1.65;;;0.70;;
16262;SDS011;8239;48.594;8.598;2022-09-09T13:16:19;1.38;;;0.60;;
16262;SDS011;8239;48.594;8.598;2022-09-09T13:18:48;0.68;;;0.60;;
16262;SDS011;8239;48.594;8.598;2022-09-09T13:21:15;1.33;;;0.65;;
16262;SDS011;8239;48.594;8.598;2022-09-09T13:23:48;1.40;;;0.70;;
16262;SDS011;8239;48.594;8.598;2022-09-09T13:26:22;0.77;;;0.40;;
16262;SDS011;8239;48.594;8.598;2022-09-09T13:28:51;1.05;;;0.55;;
16262;SDS011;8239;48.594;8.598;2022-09-09T13:31:20;2.30;;;0.85;;
16262;SDS011;8239;48.594;8.598;2022-09-09T13:33:48;1.63;;;0.65;;
16262;SDS011;8239;48.594;8.598;2022-09-09T13:36:15;2.13;;;0.93;;
16262;SDS011;8239;48.594;8.598;2022-09-09T13:38:54;1.48;;;0.50;;
16262;SDS011;8239;48.594;8.598;2022-09-09T13:41:25;0.55;;;0.40;;
16262;SDS011;8239;48.594;8.598;2022-09-09T13:43:55;0.90;;;0.50;;
16262;SDS011;8239;48.594;8.598;2022-09-09T13:46:24;0.80;;;0.40;;
16262;SDS011;8239;48.594;8.598;2022-09-09T13:48:55;0.60;;;0.40;;
16262;SDS011;8239;48.594;8.598;2022-09-09T13:51:27;1.20;;;0.50;;
16262;SDS011;8239;48.594;8.598;2022-09-09T13:54:01;1.00;;;0.50;;
16262;SDS011;8239;48.594;8.598;2022-09-09T13:56:28;1.33;;;0.50;;
16262;SDS011;8239;48.594;8.598;2022-09-09T13:58:55;3.72;;;0.52;;
16262;SDS011;8239;48.594;8.598;2022-09-09T14:01:22;1.25;;;0.60;;
16262;SDS011;8239;48.594;8.598;2022-09-09T14:03:49;1.50;;;0.50;;
16262;SDS011;8239;48.594;8.598;2022-09-09T14:06:18;1.25;;;0.45;;
16262;SDS011;8239;48.594;8.598;2022-09-09T14:08:46;2.42;;;0.60;;
16262;SDS011;8239;48.594;8.598;2022-09-09T14:11:16;1.77;;;0.60;;
16262;SDS011;8239;48.594;8.598;2022-09-09T14:13:44;3.55;;;0.50;;
16262;SDS011;8239;48.594;8.598;2022-09-09T14:16:11;0.63;;;0.40;;
16262;SDS011;8239;48.594;8.598;2022-09-09T14:18:38;0.60;;;0.50;;
16262;SDS011;8239;48.594;8.598;2022-09-09T14:21:05;0.95;;;0.60;;
16262;SDS011;8239;48.594;8.598;2022-09-09T14:23:34;0.98;;;0.50;;
16262;SDS011;8239;48.594;8.598;2022-09-09T14:26:01;1.20;;;0.60;;
16262;SDS011;8239;48.594;8.598;2022-09-09T14:28:29;0.80;;;0.55;;
16262;SDS011;8239;48.594;8.598;2022-09-09T14:30:58;2.20;;;0.98;;
16262;SDS011;8239;48.594;8.598;2022-09-09T14:33:25;1.50;;;0.80;;
16262;SDS011;8239;48.594;8.598;2022-09-09T14:35:55;4.50;;;0.70;;
16262;SDS011;8239;48.594;8.598;2022-09-09T14:38:23;0.50;;;0.50;;
16262;SDS011;8239;48.594;8.598;2022-09-09T14:40:50;1.85;;;0.65;;
16262;SDS011;8239;48.594;8.598;2022-09-09T14:43:17;1.67;;;0.68;;
16262;SDS011;8239;48.594;8.598;2022-09-09T14:45:46;1.77;;;0.70;;
16262;SDS011;8239;48.594;8.598;2022-09-09T14:48:16;1.38;;;0.60;;
16262;SDS011;8239;48.594;8.598;2022-09-09T14:50:43;1.70;;;0.80;;
16262;SDS011;8239;48.594;8.598;2022-09-09T14:53:10;1.95;;;0.65;;
16262;SDS011;8239;48.594;8.598;2022-09-09T14:55:37;0.75;;;0.50;;
16262;SDS011;8239;48.594;8.598;2022-09-09T14:58:04;1.02;;;0.65;;
16262;SDS011;8239;48.594;8.598;2022-09-09T15:00:31;1.42;;;0.43;;
16262;SDS011;8239;48.594;8.598;2022-09-09T15:03:00;1.05;;;0.60;;
16262;SDS011;8239;48.594;8.598;2022-09-09T15:05:27;2.00;;;0.70;;
16262;SDS011;8239;48.594;8.598;2022-09-09T15:07:54;1.35;;;0.60;;
16262;SDS011;8239;48.594;8.598;2022-09-09T15:10:21;0.95;;;0.60;;
16262;SDS011;8239;48.594;8.598;2022-09-09T15:12:48;0.80;;;0.52;;
16262;SDS011;8239;48.594;8.598;2022-09-09T15:15:15;1.73;;;0.40;;
16262;SDS011;8239;48.594;8.598;2022-09-09T15:17:42;0.98;;;0.52;;
16262;SDS011;8239;48.594;8.598;2022-09-09T15:20:10;2.30;;;0.95;;
16262;SDS011;8239;48.594;8.598;2022-09-09T15:22:37;0.98;;;0.40;;